createdAt,value
2023-04-28T00:01:50.552Z,4.47
2023-04-28T00:04:19.767Z,4.63
2023-04-28T00:06:48.760Z,4.10
2023-04-28T00:09:17.268Z,4.85
2023-04-28T00:11:47.444Z,4.18
2023-04-28T00:14:16.194Z,4.43
2023-04-28T00:16:44.996Z,4.05
2023-04-28T00:19:13.532Z,4.63
2023-04-28T00:21:42.004Z,3.83
2023-04-28T00:24:10.605Z,5.68
2023-04-28T00:26:39.192Z,4.80
2023-04-28T00:29:09.091Z,5.78
2023-04-28T00:31:37.642Z,4.10
2023-04-28T00:34:06.227Z,4.78
2023-04-28T00:36:35.950Z,5.40
2023-04-28T00:39:04.500Z,6.45
2023-04-28T00:41:33.068Z,4.93
2023-04-28T00:44:01.732Z,5.68
2023-04-28T00:46:33.242Z,4.70
2023-04-28T00:49:01.872Z,4.82
2023-04-28T00:51:30.746Z,4.95
2023-04-28T00:53:59.375Z,4.63
2023-04-28T00:56:31.145Z,5.13
2023-04-28T00:58:59.917Z,5.28
2023-04-28T01:01:28.805Z,5.32
2023-04-28T01:03:59.154Z,5.47
2023-04-28T01:06:29.802Z,5.78
2023-04-28T01:09:00.427Z,4.65
2023-04-28T01:11:28.988Z,5.03
2023-04-28T01:14:09.083Z,6.03
2023-04-28T01:16:40.478Z,5.35
2023-04-28T01:19:16.302Z,4.60
2023-04-28T01:21:44.982Z,5.47
2023-04-28T01:24:24.045Z,4.63
2023-04-28T01:26:52.567Z,4.57
2023-04-28T01:29:21.051Z,4.18
2023-04-28T01:31:49.617Z,4.80
2023-04-28T01:34:19.070Z,4.82
2023-04-28T01:36:52.604Z,4.75
2023-04-28T01:39:21.149Z,4.47
2023-04-28T01:41:51.084Z,5.03
2023-04-28T01:44:19.843Z,5.75
2023-04-28T01:46:50.413Z,5.40
2023-04-28T01:49:19.089Z,5.38
2023-04-28T01:51:56.749Z,5.22
2023-04-28T01:54:43.483Z,6.28
2023-04-28T01:57:33.485Z,5.45
2023-04-28T02:00:02.116Z,5.85
2023-04-28T02:02:31.631Z,5.85
2023-04-28T02:05:00.198Z,5.88
2023-04-28T02:07:28.863Z,4.60
2023-04-28T02:09:57.377Z,6.38
2023-04-28T02:12:25.910Z,6.47
2023-04-28T02:14:56.192Z,5.20
2023-04-28T02:17:24.706Z,5.70
2023-04-28T02:19:56.817Z,5.75
2023-04-28T02:22:25.789Z,6.00
2023-04-28T02:24:54.346Z,5.60
2023-04-28T02:27:22.934Z,5.53
2023-04-28T02:29:51.758Z,5.30
2023-04-28T02:32:21.841Z,5.40
2023-04-28T02:34:54.833Z,7.38
2023-04-28T02:37:24.995Z,4.88
2023-04-28T02:39:53.697Z,5.13
2023-04-28T02:42:24.061Z,6.82
2023-04-28T02:44:52.626Z,5.40
2023-04-28T02:47:22.516Z,5.28
2023-04-28T02:49:51.276Z,6.28
2023-04-28T02:52:20.065Z,5.18
2023-04-28T02:54:49.261Z,6.25
2023-04-28T02:57:19.180Z,7.15
2023-04-28T02:59:47.788Z,6.20
2023-04-28T03:02:16.578Z,5.47
2023-04-28T03:04:46.722Z,5.97
2023-04-28T03:07:15.460Z,5.18
2023-04-28T03:09:46.323Z,6.20
2023-04-28T03:12:14.908Z,5.13
2023-04-28T03:14:43.396Z,4.30
2023-04-28T03:17:14.439Z,6.22
2023-04-28T03:19:43.229Z,6.55
2023-04-28T03:22:13.399Z,7.78
2023-04-28T03:24:41.958Z,6.25
2023-04-28T03:27:10.815Z,6.13
2023-04-28T03:29:39.300Z,5.30
2023-04-28T03:32:08.256Z,5.57
2023-04-28T03:34:36.889Z,6.03
2023-04-28T03:37:05.842Z,6.00
2023-04-28T03:39:36.331Z,6.18
2023-04-28T03:42:05.353Z,5.82
2023-04-28T03:45:05.873Z,5.53
2023-04-28T03:47:34.603Z,5.28
2023-04-28T03:50:03.561Z,6.07
2023-04-28T03:52:32.454Z,4.60
2023-04-28T03:55:02.389Z,5.20
2023-04-28T03:57:31.629Z,4.80
2023-04-28T04:00:00.154Z,4.68
2023-04-28T04:02:31.969Z,4.65
2023-04-28T04:05:01.687Z,6.80
2023-04-28T04:07:30.739Z,5.80
2023-04-28T04:09:59.190Z,6.55
2023-04-28T04:12:29.033Z,4.63
2023-04-28T04:14:57.588Z,5.10
2023-04-28T04:17:26.605Z,5.68
2023-04-28T04:19:55.498Z,4.93
2023-04-28T04:22:24.183Z,5.93
2023-04-28T04:24:52.694Z,6.38
2023-04-28T04:27:21.209Z,5.97
2023-04-28T04:29:51.037Z,5.95
2023-04-28T04:32:19.883Z,5.25
2023-04-28T04:34:48.466Z,6.50
2023-04-28T04:37:17.635Z,5.32
2023-04-28T04:40:03.631Z,5.22
2023-04-28T04:42:38.336Z,4.88
2023-04-28T04:45:11.449Z,5.07
2023-04-28T04:47:41.509Z,4.18
2023-04-28T04:50:12.223Z,5.78
2023-04-28T04:52:41.811Z,6.20
2023-04-28T04:55:11.494Z,4.93
2023-04-28T04:57:42.776Z,5.35
2023-04-28T05:00:21.539Z,4.43
2023-04-28T05:02:50.871Z,4.97
2023-04-28T05:05:21.671Z,4.55
2023-04-28T05:08:08.246Z,4.63
2023-04-28T05:10:37.347Z,4.25
2023-04-28T05:13:06.354Z,4.20
2023-04-28T05:15:36.846Z,4.32
2023-04-28T05:18:31.627Z,4.78
2023-04-28T05:21:01.686Z,4.78
2023-04-28T05:23:30.474Z,5.20
2023-04-28T05:25:59.862Z,4.40
2023-04-28T05:28:28.435Z,7.53
2023-04-28T05:30:59.451Z,5.55
2023-04-28T05:33:27.978Z,6.55
2023-04-28T05:35:56.712Z,4.60
2023-04-28T05:38:26.104Z,5.22
2023-04-28T05:40:55.866Z,6.15
2023-04-28T05:43:24.588Z,5.38
2023-04-28T05:45:53.913Z,5.28
2023-04-28T05:48:24.867Z,5.13
2023-04-28T05:50:53.654Z,6.78
2023-04-28T05:53:23.738Z,4.63
2023-04-28T05:55:53.440Z,7.72
2023-04-28T05:58:22.686Z,5.72
2023-04-28T06:00:51.516Z,6.22
2023-04-28T06:03:20.412Z,5.75
2023-04-28T06:05:52.244Z,5.90
2023-04-28T06:08:21.249Z,5.38
2023-04-28T06:10:49.977Z,5.15
2023-04-28T06:13:18.475Z,6.03
2023-04-28T06:15:47.210Z,5.30
2023-04-28T06:18:16.815Z,5.57
2023-04-28T06:20:45.405Z,5.68
2023-04-28T06:23:15.521Z,5.10
2023-04-28T06:28:17.517Z,5.75
2023-04-28T06:30:47.152Z,4.80
2023-04-28T06:33:15.904Z,6.75
2023-04-28T06:35:44.932Z,6.60
2023-04-28T06:38:15.479Z,6.15
2023-04-28T06:40:45.705Z,7.10
2023-04-28T06:43:14.496Z,7.85
2023-04-28T06:45:51.431Z,6.35
2023-04-28T06:48:20.304Z,6.20
2023-04-28T06:50:49.084Z,6.57
2023-04-28T06:53:19.057Z,7.90
2023-04-28T06:55:47.662Z,6.40
2023-04-28T06:58:16.939Z,6.05
2023-04-28T07:00:45.905Z,6.00
2023-04-28T07:03:14.636Z,6.35
2023-04-28T07:05:43.304Z,6.78
2023-04-28T07:08:12.437Z,7.03
2023-04-28T07:10:43.195Z,7.22
2023-04-28T07:13:12.485Z,7.50
2023-04-28T07:15:41.327Z,6.63
2023-04-28T07:18:10.453Z,6.03
2023-04-28T07:20:39.171Z,6.55
2023-04-28T07:23:08.323Z,7.70
2023-04-28T07:25:37.072Z,6.03
2023-04-28T07:28:07.438Z,6.28
2023-04-28T07:30:36.272Z,7.93
2023-04-28T07:33:05.070Z,6.43
2023-04-28T07:35:33.687Z,5.53
2023-04-28T07:38:03.903Z,6.45
2023-04-28T07:40:32.309Z,6.40
2023-04-28T07:43:00.918Z,6.57
2023-04-28T07:45:31.102Z,6.93
2023-04-28T07:48:00.047Z,7.18
2023-04-28T07:50:28.953Z,7.43
2023-04-28T07:52:58.237Z,6.70
2023-04-28T07:55:26.904Z,7.78
2023-04-28T07:57:57.176Z,7.60
2023-04-28T08:00:25.698Z,7.28
2023-04-28T08:02:57.009Z,7.25
2023-04-28T08:05:25.932Z,7.38
2023-04-28T08:07:54.705Z,5.85
2023-04-28T08:10:23.256Z,6.15
2023-04-28T08:12:51.905Z,4.85
2023-04-28T08:15:20.672Z,6.07
2023-04-28T08:17:49.232Z,6.50
2023-04-28T08:20:22.250Z,6.47
2023-04-28T08:22:52.597Z,7.28
2023-04-28T08:25:21.661Z,7.15
2023-04-28T08:27:49.996Z,6.53
2023-04-28T08:30:18.465Z,5.25
2023-04-28T08:32:47.763Z,6.25
2023-04-28T08:35:16.446Z,8.35
2023-04-28T08:37:46.573Z,7.25
2023-04-28T08:40:15.148Z,6.35
2023-04-28T08:42:45.907Z,8.93
2023-04-28T08:45:15.301Z,7.68
2023-04-28T08:47:46.207Z,6.75
2023-04-28T08:50:15.542Z,7.45
2023-04-28T08:52:44.133Z,7.97
2023-04-28T08:55:14.369Z,8.40
2023-04-28T08:57:45.315Z,8.73
2023-04-28T09:00:14.596Z,6.82
2023-04-28T09:02:43.642Z,7.43
2023-04-28T09:05:15.146Z,8.45
2023-04-28T09:07:47.971Z,8.07
2023-04-28T09:10:19.991Z,9.65
2023-04-28T09:12:49.974Z,9.13
2023-04-28T09:15:30.605Z,6.53
2023-04-28T09:18:00.577Z,7.63
2023-04-28T09:20:31.499Z,7.28
2023-04-28T09:23:14.986Z,6.53
2023-04-28T09:25:59.730Z,6.30
2023-04-28T09:28:29.441Z,8.45
2023-04-28T09:30:58.106Z,9.02
2023-04-28T09:33:27.020Z,7.20
2023-04-28T09:35:55.680Z,7.47
2023-04-28T09:38:24.763Z,7.85
2023-04-28T09:40:55.519Z,8.25
2023-04-28T09:43:33.519Z,8.48
2023-04-28T09:46:03.860Z,6.60
2023-04-28T09:48:34.269Z,7.90
2023-04-28T09:51:04.325Z,10.05
2023-04-28T09:53:33.403Z,8.20
2023-04-28T09:56:03.652Z,8.13
2023-04-28T09:58:36.056Z,6.65
2023-04-28T10:01:06.892Z,6.90
2023-04-28T10:03:36.845Z,7.72
2023-04-28T10:06:06.947Z,7.50
2023-04-28T10:08:36.003Z,6.65
2023-04-28T10:11:05.083Z,7.28
2023-04-28T10:13:37.050Z,7.82
2023-04-28T10:16:06.541Z,6.75
2023-04-28T10:18:36.523Z,7.88
2023-04-28T10:21:07.492Z,8.25
2023-04-28T10:24:01.168Z,6.68
2023-04-28T10:26:59.140Z,7.75
2023-04-28T10:29:33.408Z,9.80
2023-04-28T10:32:22.259Z,9.73
2023-04-28T10:34:51.617Z,8.40
2023-04-28T10:37:20.455Z,8.20
2023-04-28T10:40:26.368Z,9.85
2023-04-28T10:42:56.699Z,11.45
2023-04-28T10:46:03.052Z,9.25
2023-04-28T10:49:08.261Z,7.72
2023-04-28T10:51:38.389Z,9.23
2023-04-28T10:54:11.153Z,9.38
2023-04-28T10:56:41.848Z,9.50
2023-04-28T10:59:31.341Z,9.60
2023-04-28T11:02:30.019Z,9.88
2023-04-28T11:05:20.827Z,8.40
2023-04-28T11:08:36.389Z,8.75
2023-04-28T11:11:22.645Z,11.75
2023-04-28T11:13:51.607Z,9.93
2023-04-28T11:16:23.173Z,10.02
2023-04-28T11:18:55.839Z,10.30
2023-04-28T11:21:25.984Z,11.50
2023-04-28T11:23:56.395Z,11.40
2023-04-28T11:26:24.969Z,12.52
2023-04-28T11:28:55.220Z,10.90
2023-04-28T11:31:24.589Z,10.95
2023-04-28T11:33:56.813Z,11.35
2023-04-28T11:36:30.353Z,11.18
2023-04-28T11:39:00.966Z,10.35
2023-04-28T11:41:29.798Z,11.27
2023-04-28T11:43:58.881Z,10.30
2023-04-28T11:46:28.568Z,14.57
2023-04-28T11:49:05.654Z,14.13
2023-04-28T11:51:38.860Z,13.55
2023-04-28T11:54:11.843Z,11.77
2023-04-28T11:56:43.309Z,10.70
2023-04-28T11:59:15.807Z,10.55
2023-04-28T12:01:49.255Z,12.07
2023-04-28T12:04:29.510Z,11.38
2023-04-28T12:07:06.446Z,12.07
2023-04-28T12:09:36.897Z,12.02
2023-04-28T12:12:07.361Z,9.48
2023-04-28T12:14:57.579Z,10.60
2023-04-28T12:17:27.555Z,10.45
2023-04-28T12:19:56.601Z,10.90
2023-04-28T12:22:26.348Z,9.32
2023-04-28T12:25:08.273Z,9.35
2023-04-28T12:27:39.300Z,8.88
2023-04-28T12:30:26.201Z,11.45
2023-04-28T12:32:56.366Z,9.82
2023-04-28T12:35:26.371Z,10.20
2023-04-28T12:37:56.586Z,13.30
2023-04-28T12:40:28.486Z,11.95
2023-04-28T12:42:57.652Z,11.82
2023-04-28T12:45:26.549Z,10.32
2023-04-28T12:47:55.465Z,12.25
2023-04-28T12:50:25.867Z,10.50
2023-04-28T12:52:54.736Z,12.43
2023-04-28T12:55:24.193Z,9.55
2023-04-28T12:57:54.943Z,9.88
2023-04-28T13:00:25.190Z,9.85
2023-04-28T13:02:54.066Z,8.65
2023-04-28T13:05:22.977Z,9.02
2023-04-28T13:07:52.496Z,8.98
2023-04-28T13:10:22.362Z,8.77
2023-04-28T13:12:50.751Z,8.90
2023-04-28T13:15:20.908Z,9.77
2023-04-28T13:17:49.868Z,8.43
2023-04-28T13:20:18.563Z,8.60
2023-04-28T13:22:47.342Z,8.93
2023-04-28T13:25:16.248Z,8.80
2023-04-28T13:27:44.709Z,8.15
2023-04-28T13:30:14.484Z,7.75
2023-04-28T13:32:44.564Z,6.55
2023-04-28T13:35:13.229Z,6.25
2023-04-28T13:37:45.812Z,7.47
2023-04-28T13:40:14.584Z,7.18
2023-04-28T13:42:43.170Z,5.53
2023-04-28T13:45:16.219Z,6.68
2023-04-28T13:47:50.263Z,5.55
2023-04-28T13:50:18.876Z,5.50
2023-04-28T13:52:48.783Z,5.65
2023-04-28T13:55:17.260Z,5.78
2023-04-28T13:57:45.743Z,5.28
2023-04-28T14:00:15.452Z,5.45
2023-04-28T14:02:44.838Z,4.97
2023-04-28T14:05:15.045Z,5.28
2023-04-28T14:07:43.939Z,6.45
2023-04-28T14:10:12.663Z,6.82
2023-04-28T14:12:41.089Z,6.15
2023-04-28T14:15:10.068Z,5.97
2023-04-28T14:17:39.045Z,5.20
2023-04-28T14:20:11.514Z,6.55
2023-04-28T14:22:41.982Z,5.28
2023-04-28T14:25:11.841Z,5.85
2023-04-28T14:27:40.686Z,4.88
2023-04-28T14:30:12.843Z,6.15
2023-04-28T14:32:41.532Z,5.05
2023-04-28T14:35:13.558Z,4.85
2023-04-28T14:37:44.354Z,4.38
2023-04-28T14:40:13.247Z,4.05
2023-04-28T14:42:41.796Z,3.83
2023-04-28T14:45:11.835Z,3.85
2023-04-28T14:47:42.195Z,4.13
2023-04-28T14:50:13.189Z,3.60
2023-04-28T14:52:44.111Z,5.05
2023-04-28T14:55:13.675Z,3.30
2023-04-28T14:57:42.690Z,3.75
2023-04-28T15:00:12.309Z,2.97
2023-04-28T15:02:41.041Z,2.80
2023-04-28T15:05:11.396Z,3.17
2023-04-28T15:07:40.096Z,3.50
2023-04-28T15:10:10.479Z,2.75
2023-04-28T15:12:38.912Z,2.88
2023-04-28T15:15:08.488Z,2.95
2023-04-28T15:17:36.927Z,3.50
2023-04-28T15:20:06.447Z,3.28
2023-04-28T15:22:36.513Z,3.58
2023-04-28T15:25:05.932Z,5.57
2023-04-28T15:27:36.523Z,3.20
2023-04-28T15:30:06.635Z,2.92
2023-04-28T15:32:35.353Z,3.05
2023-04-28T15:35:04.112Z,3.70
2023-04-28T15:37:43.860Z,4.47
2023-04-28T15:40:14.661Z,4.45
2023-04-28T15:42:49.110Z,4.20
2023-04-28T15:45:18.889Z,4.57
2023-04-28T15:47:49.457Z,5.85
2023-04-28T15:50:19.749Z,6.35
2023-04-28T15:52:50.230Z,5.30
2023-04-28T15:55:20.279Z,6.45
2023-04-28T15:57:51.131Z,5.63
2023-04-28T16:00:19.770Z,6.30
2023-04-28T16:02:48.651Z,5.15
2023-04-28T16:05:17.694Z,4.97
2023-04-28T16:07:46.354Z,4.22
2023-04-28T16:10:16.713Z,4.30
2023-04-28T16:12:45.749Z,3.80
2023-04-28T16:15:15.870Z,4.15
2023-04-28T16:17:44.749Z,3.35
2023-04-28T16:20:13.561Z,3.70
2023-04-28T16:22:43.284Z,3.53
2023-04-28T16:25:12.471Z,3.40
2023-04-28T16:27:41.741Z,3.33
2023-04-28T16:30:11.032Z,4.40
2023-04-28T16:32:41.126Z,3.70
2023-04-28T16:35:15.139Z,3.90
2023-04-28T16:37:44.473Z,4.35
2023-04-28T16:40:13.928Z,4.70
2023-04-28T16:42:43.693Z,4.38
2023-04-28T16:45:13.057Z,4.97
2023-04-28T16:47:44.031Z,4.05
2023-04-28T16:50:14.804Z,4.45
2023-04-28T16:52:43.825Z,4.22
2023-04-28T16:55:12.603Z,4.57
2023-04-28T16:57:41.425Z,4.60
2023-04-28T17:00:12.095Z,5.75
2023-04-28T17:02:42.192Z,4.70
2023-04-28T17:05:11.397Z,5.60
2023-04-28T17:07:40.045Z,5.60
2023-04-28T17:10:09.810Z,4.97
2023-04-28T17:12:39.495Z,7.75
2023-04-28T17:15:09.508Z,7.00
2023-04-28T17:17:38.206Z,6.05
2023-04-28T17:20:10.467Z,7.63
2023-04-28T17:22:39.424Z,6.18
2023-04-28T17:25:09.879Z,5.60
2023-04-28T17:27:38.534Z,5.90
2023-04-28T17:30:10.919Z,6.53
2023-04-28T17:32:39.610Z,5.85
2023-04-28T17:35:10.576Z,6.20
2023-04-28T17:37:39.206Z,6.25
2023-04-28T17:40:09.166Z,5.25
2023-04-28T17:42:37.757Z,5.82
2023-04-28T17:45:07.482Z,5.68
2023-04-28T17:47:36.365Z,4.70
2023-04-28T17:50:06.559Z,5.82
2023-04-28T17:52:37.799Z,4.90
2023-04-28T17:55:07.594Z,4.93
2023-04-28T17:57:36.989Z,5.13
2023-04-28T18:00:12.154Z,5.15
2023-04-28T18:02:41.509Z,4.82
2023-04-28T18:05:11.278Z,5.20
2023-04-28T18:07:41.815Z,5.28
2023-04-28T18:10:11.545Z,4.47
2023-04-28T18:12:40.266Z,4.70
2023-04-28T18:15:10.949Z,4.78
2023-04-28T18:17:39.871Z,4.95
2023-04-28T18:20:09.913Z,6.03
2023-04-28T18:22:39.349Z,5.68
2023-04-28T18:25:10.979Z,6.15
2023-04-28T18:27:40.161Z,8.55
2023-04-28T18:30:10.313Z,7.05
2023-04-28T18:32:40.738Z,6.07
2023-04-28T18:35:10.487Z,6.18
2023-04-28T18:37:39.778Z,7.80
2023-04-28T18:40:13.308Z,7.53
2023-04-28T18:42:42.598Z,7.20
2023-04-28T18:45:13.045Z,8.32
2023-04-28T18:47:42.091Z,6.80
2023-04-28T18:50:11.760Z,6.20
2023-04-28T18:52:41.092Z,5.70
2023-04-28T18:55:11.929Z,5.45
2023-04-28T18:57:42.587Z,7.28
2023-04-28T19:00:12.079Z,6.10
2023-04-28T19:02:41.313Z,5.95
2023-04-28T19:05:10.646Z,6.65
2023-04-28T19:07:40.469Z,5.43
2023-04-28T19:10:12.481Z,4.88
2023-04-28T19:12:42.671Z,5.47
2023-04-28T19:15:11.957Z,4.82
2023-04-28T19:17:40.994Z,4.85
2023-04-28T19:20:10.744Z,5.65
2023-04-28T19:22:44.023Z,5.15
2023-04-28T19:25:16.066Z,5.32
2023-04-28T19:27:46.830Z,5.18
2023-04-28T19:30:16.841Z,5.47
2023-04-28T19:32:46.814Z,5.25
2023-04-28T19:35:16.645Z,6.03
2023-04-28T19:37:46.236Z,4.63
2023-04-28T19:40:20.189Z,4.68
2023-04-28T19:42:51.904Z,4.82
2023-04-28T19:45:25.524Z,4.82
2023-04-28T19:47:55.623Z,5.83
2023-04-28T19:50:24.496Z,4.63
2023-04-28T19:52:53.345Z,4.95
2023-04-28T19:55:24.144Z,5.40
2023-04-28T19:57:55.919Z,6.40
2023-04-28T20:00:25.640Z,6.07
2023-04-28T20:02:54.709Z,6.28
2023-04-28T20:05:23.621Z,7.10
2023-04-28T20:07:56.166Z,5.88
2023-04-28T20:10:26.645Z,6.32
2023-04-28T20:12:55.404Z,6.70
2023-04-28T20:15:24.306Z,5.95
2023-04-28T20:17:53.416Z,5.85
2023-04-28T20:20:22.347Z,8.02
2023-04-28T20:22:51.777Z,8.45
2023-04-28T20:25:21.122Z,7.28
2023-04-28T20:27:51.202Z,8.90
2023-04-28T20:30:20.115Z,6.80
2023-04-28T20:32:49.400Z,6.38
2023-04-28T20:35:18.113Z,8.05
2023-04-28T20:37:46.764Z,6.57
2023-04-28T20:40:15.504Z,6.35
2023-04-28T20:42:44.028Z,6.88
2023-04-28T20:45:14.011Z,6.43
2023-04-28T20:47:42.593Z,6.28
2023-04-28T20:50:12.415Z,6.47
2023-04-28T20:52:40.982Z,5.82
2023-04-28T20:55:10.588Z,7.93
2023-04-28T20:57:39.167Z,8.82
2023-04-28T21:00:09.145Z,6.88
2023-04-28T21:02:39.268Z,8.00
2023-04-28T21:05:08.660Z,8.50
2023-04-28T21:07:37.192Z,8.05
2023-04-28T21:10:06.770Z,11.55
2023-04-28T21:12:36.105Z,9.68
2023-04-28T21:15:05.009Z,8.52
2023-04-28T21:17:33.552Z,7.93
2023-04-28T21:20:03.503Z,8.77
2023-04-28T21:22:33.558Z,7.07
2023-04-28T21:25:02.200Z,8.93
2023-04-28T21:27:36.946Z,7.25
2023-04-28T21:30:06.415Z,7.93
2023-04-28T21:32:35.012Z,6.57
2023-04-28T21:35:05.282Z,6.88
2023-04-28T21:37:33.914Z,8.55
2023-04-28T21:40:02.707Z,7.78
2023-04-28T21:42:31.989Z,7.07
2023-04-28T21:45:00.502Z,6.60
2023-04-28T21:47:29.335Z,7.10
2023-04-28T21:49:58.035Z,8.40
2023-04-28T21:52:28.048Z,7.00
2023-04-28T21:54:56.748Z,8.57
2023-04-28T21:57:25.285Z,7.70
2023-04-28T21:59:53.864Z,6.68
2023-04-28T22:02:22.922Z,6.95
2023-04-28T22:04:51.739Z,6.13
2023-04-28T22:07:20.305Z,7.05
2023-04-28T22:09:50.465Z,6.80
2023-04-28T22:12:19.065Z,6.03
2023-04-28T22:14:47.612Z,7.00
2023-04-28T22:17:16.402Z,6.50
2023-04-28T22:19:45.322Z,7.00
2023-04-28T22:22:13.785Z,7.80
2023-04-28T22:24:42.339Z,7.57
2023-04-28T22:27:12.170Z,7.57
2023-04-28T22:29:40.639Z,6.72
2023-04-28T22:32:10.212Z,8.02
2023-04-28T22:34:38.794Z,8.60
2023-04-28T22:37:07.366Z,11.95
2023-04-28T22:39:36.505Z,8.82
2023-04-28T22:42:05.069Z,10.23
2023-04-28T22:44:34.862Z,8.82
2023-04-28T22:47:03.525Z,8.80
2023-04-28T22:49:32.270Z,9.70
2023-04-28T22:52:01.058Z,12.50
2023-04-28T22:54:29.689Z,10.30
2023-04-28T22:56:59.230Z,15.88
2023-04-28T22:59:27.891Z,13.55
2023-04-28T23:01:57.798Z,13.10
2023-04-28T23:04:26.979Z,16.70
2023-04-28T23:06:55.588Z,16.70
2023-04-28T23:09:24.199Z,16.17
2023-04-28T23:11:52.726Z,16.83
2023-04-28T23:14:21.296Z,18.23
2023-04-28T23:16:49.989Z,19.67
2023-04-28T23:19:20.723Z,25.92
2023-04-28T23:21:49.567Z,19.23
2023-04-28T23:24:18.161Z,21.83
2023-04-28T23:26:47.012Z,18.98
2023-04-28T23:29:15.597Z,16.58
2023-04-28T23:31:52.121Z,17.83
2023-04-28T23:34:22.591Z,19.70
2023-04-28T23:36:51.704Z,19.17
2023-04-28T23:39:20.197Z,17.92
2023-04-28T23:41:48.768Z,17.98
2023-04-28T23:44:17.344Z,15.32
2023-04-28T23:46:45.919Z,16.15
2023-04-28T23:49:16.082Z,17.17
2023-04-28T23:51:46.085Z,18.23
2023-04-28T23:54:14.633Z,15.40
2023-04-28T23:56:43.195Z,13.57
2023-04-28T23:59:11.712Z,14.07
